Time;durP1;ratioP1;P1;durP2;ratioP2;P2;SDS_P1;SDS_P2;PMS_P1;PMS_P2;Temp;Humidity;BMP_temperature;BMP_pressure;BME280_temperature;BME280_humidity;BME280_pressure;Samples;Min_cycle;Max_cycle;Signal;HPM_P1;HPM_P2
2023/04/12 00:01:34;;;;;;;1.20;1.10;;;24.60;50.60;;;;;;5031798;28;20281;-63
2023/04/12 00:04:27;;;;;;;1.45;1.35;;;24.60;50.20;;;;;;5032579;28;20303;-63
2023/04/12 00:07:17;;;;;;;1.38;1.05;;;24.60;50.60;;;;;;5033977;28;20632;-62
2023/04/12 00:10:06;;;;;;;1.33;0.93;;;24.70;50.60;;;;;;5034177;28;20281;-63
2023/04/12 00:12:54;;;;;;;1.50;0.90;;;24.90;50.00;;;;;;5032780;28;20328;-63
2023/04/12 00:15:44;;;;;;;1.13;0.98;;;24.90;50.50;;;;;;5034199;28;20202;-63
2023/04/12 00:18:32;;;;;;;1.35;1.25;;;25.00;50.40;;;;;;5033836;28;20606;-63
2023/04/12 00:21:22;;;;;;;0.93;0.90;;;25.00;50.20;;;;;;5033084;28;20335;-63
2023/04/12 00:24:11;;;;;;;1.17;0.88;;;25.10;49.60;;;;;;5032149;28;20233;-62
2023/04/12 00:27:00;;;;;;;1.20;1.02;;;25.10;50.10;;;;;;5033763;28;20202;-63
2023/04/12 00:29:48;;;;;;;1.95;1.00;;;25.10;50.00;;;;;;5033838;28;20666;-63
2023/04/12 00:32:38;;;;;;;0.82;0.80;;;24.90;53.40;;;;;;5032367;28;20206;-62
2023/04/12 00:35:26;;;;;;;2.08;0.95;;;25.20;50.00;;;;;;5031122;28;20202;-63
2023/04/12 00:38:15;;;;;;;1.05;0.95;;;25.20;49.90;;;;;;5032523;28;20217;-63
2023/04/12 00:41:03;;;;;;;1.33;1.23;;;25.10;49.90;;;;;;5032108;28;20268;-63
2023/04/12 00:43:51;;;;;;;1.50;1.13;;;25.20;49.40;;;;;;5032450;28;20305;-62
2023/04/12 00:46:39;;;;;;;1.27;0.90;;;25.20;49.90;;;;;;5032007;28;20202;-63
2023/04/12 00:49:30;;;;;;;1.00;0.80;;;25.20;50.00;;;;;;5031282;28;20698;-63
2023/04/12 00:52:18;;;;;;;1.33;1.00;;;25.20;49.80;;;;;;5033213;28;20248;-63
2023/04/12 00:55:08;;;;;;;0.80;0.80;;;25.20;49.30;;;;;;5031286;28;20297;-62
2023/04/12 00:57:56;;;;;;;1.67;0.98;;;25.20;50.50;;;;;;5047114;28;20197;-63
2023/04/12 01:00:49;;;;;;;0.88;0.88;;;25.10;49.90;;;;;;5051897;28;20205;-63
2023/04/12 01:03:41;;;;;;;0.80;0.80;;;25.00;49.30;;;;;;5050651;28;20255;-63
2023/04/12 01:06:41;;;;;;;1.25;1.15;;;25.00;49.90;;;;;;5051826;28;20197;-63
2023/04/12 01:09:42;;;;;;;1.35;0.90;;;24.90;49.90;;;;;;5051677;28;20280;-63
2023/04/12 01:12:39;;;;;;;1.00;1.00;;;24.90;50.40;;;;;;5051341;28;20581;-63
2023/04/12 01:15:31;;;;;;;1.30;0.98;;;24.80;50.10;;;;;;5051726;28;20283;-63
2023/04/12 01:18:23;;;;;;;1.05;0.80;;;24.80;50.30;;;;;;5051265;28;20331;-63
2023/04/12 01:21:16;;;;;;;1.27;1.00;;;24.70;50.20;;;;;;5051480;28;20197;-64
2023/04/12 01:24:23;;;;;;;1.30;0.90;;;24.70;49.70;;;;;;5051118;28;20221;-63
2023/04/12 01:27:12;;;;;;;1.30;0.95;;;24.80;50.20;;;;;;5052065;28;20266;-63
2023/04/12 01:30:06;;;;;;;0.80;0.80;;;24.80;50.10;;;;;;5051623;28;20193;-63
2023/04/12 01:32:56;;;;;;;1.00;0.90;;;24.90;49.40;;;;;;5050628;28;20217;-63
2023/04/12 01:35:46;;;;;;;0.98;0.90;;;25.00;50.00;;;;;;5051305;28;20286;-63
2023/04/12 01:38:34;;;;;;;1.42;1.00;;;24.90;49.90;;;;;;5050897;28;20257;-63
2023/04/12 01:41:23;;;;;;;1.40;0.93;;;24.90;49.80;;;;;;5051507;28;20224;-63
2023/04/12 01:44:13;;;;;;;0.93;0.90;;;24.90;49.20;;;;;;5050783;28;20241;-63
2023/04/12 01:47:09;;;;;;;1.95;1.08;;;24.90;49.80;;;;;;5051512;28;20229;-63
2023/04/12 01:50:10;;;;;;;1.27;0.90;;;24.90;50.00;;;;;;5049167;28;20197;-63
2023/04/12 01:53:03;;;;;;;1.52;1.10;;;24.70;49.50;;;;;;5071295;28;20751;-63
2023/04/12 01:55:58;;;;;;;1.30;0.90;;;24.70;50.00;;;;;;5070694;28;20279;-63
2023/04/12 01:58:48;;;;;;;1.27;0.90;;;24.60;50.00;;;;;;5032508;28;20380;-63
2023/04/12 02:01:36;;;;;;;1.17;0.95;;;24.60;50.00;;;;;;5032008;28;20293;-63
2023/04/12 02:04:27;;;;;;;1.13;1.13;;;24.60;49.60;;;;;;5032275;28;20222;-64
2023/04/12 02:07:17;;;;;;;3.10;0.85;;;24.70;50.10;;;;;;5031717;28;20205;-63
2023/04/12 02:10:06;;;;;;;2.22;1.00;;;24.70;49.90;;;;;;5032935;28;20260;-63
2023/04/12 02:12:54;;;;;;;1.20;1.08;;;24.90;49.30;;;;;;5036140;28;20230;-63
2023/04/12 02:15:42;;;;;;;1.00;0.90;;;24.90;49.20;;;;;;5126957;22;20740;-68
2023/04/12 02:18:30;;;;;;;1.13;1.02;;;25.00;49.70;;;;;;5113997;28;20232;-68
2023/04/12 02:21:20;;;;;;;1.00;1.00;;;25.00;49.60;;;;;;5114786;28;20722;-68
2023/04/12 02:24:08;;;;;;;0.98;0.98;;;25.00;49.00;;;;;;5114337;28;20714;-67
2023/04/12 02:26:58;;;;;;;0.88;0.88;;;25.00;49.40;;;;;;5115070;28;20617;-66
2023/04/12 02:29:46;;;;;;;1.00;1.00;;;25.00;49.50;;;;;;5114994;28;20333;-67
2023/04/12 02:32:42;;;;;;;1.05;1.00;;;25.00;49.50;;;;;;5114620;28;20569;-67
2023/04/12 02:35:31;;;;;;;1.17;1.02;;;25.10;49.40;;;;;;5114242;28;20604;-67
2023/04/12 02:38:20;;;;;;;1.05;1.05;;;25.00;49.50;;;;;;5115243;28;20223;-67
2023/04/12 02:41:08;;;;;;;1.02;0.93;;;24.90;49.40;;;;;;5115154;28;20232;-67
2023/04/12 02:43:56;;;;;;;1.50;1.00;;;25.00;54.10;;;;;;5115262;28;20671;-67
2023/04/12 02:46:45;;;;;;;1.55;1.20;;;25.00;49.60;;;;;;5113931;28;20227;-67
2023/04/12 02:49:33;;;;;;;1.65;1.38;;;24.90;49.40;;;;;;5114337;28;20195;-67
2023/04/12 02:52:21;;;;;;;2.33;1.20;;;25.00;49.50;;;;;;5115221;28;20200;-67
2023/04/12 02:55:11;;;;;;;1.10;0.93;;;24.90;48.90;;;;;;5115035;28;20770;-67
2023/04/12 02:57:59;;;;;;;1.38;1.27;;;24.90;49.40;;;;;;5114098;28;20276;-67
2023/04/12 03:00:49;;;;;;;2.08;1.02;;;25.00;49.40;;;;;;5114474;28;20222;-66
2023/04/12 03:03:38;;;;;;;1.20;1.00;;;;;;;;;;5114463;28;20229;-67
2023/04/12 03:06:26;;;;;;;1.20;1.10;;;24.90;48.80;;;;;;5113433;28;20265;-67
2023/04/12 03:09:15;;;;;;;2.03;1.10;;;24.90;49.30;;;;;;5114151;28;20572;-67
2023/04/12 03:12:05;;;;;;;1.58;1.10;;;24.80;49.30;;;;;;5114195;28;20278;-67
2023/04/12 03:14:53;;;;;;;1.33;1.23;;;24.80;48.80;;;;;;5113475;28;20722;-66
2023/04/12 03:17:41;;;;;;;1.35;1.10;;;24.80;49.50;;;;;;5115298;28;20199;-67
2023/04/12 03:20:30;;;;;;;1.20;1.10;;;24.70;49.20;;;;;;5114526;28;20222;-66
2023/04/12 03:23:18;;;;;;;1.38;1.10;;;24.70;49.40;;;;;;5114162;28;20273;-67
2023/04/12 03:26:06;;;;;;;1.15;1.15;;;24.70;49.40;;;;;;5113886;28;20281;-66
2023/04/12 03:29:00;;;;;;;1.38;1.27;;;24.70;49.30;;;;;;5114302;28;20553;-67
2023/04/12 03:31:48;;;;;;;1.77;1.13;;;24.90;49.40;;;;;;5114457;28;20249;-67
2023/04/12 03:34:36;;;;;;;1.30;1.17;;;24.80;49.30;;;;;;5113487;28;20698;-67
2023/04/12 03:37:24;;;;;;;2.20;1.20;;;24.80;49.30;;;;;;5113683;28;20195;-66
2023/04/12 03:40:13;;;;;;;2.03;1.65;;;24.80;49.30;;;;;;5113921;28;20218;-67
2023/04/12 03:43:01;;;;;;;1.35;1.25;;;24.70;49.20;;;;;;5113249;28;20296;-67
2023/04/12 03:45:51;;;;;;;1.75;1.20;;;24.70;49.30;;;;;;5114554;28;20219;-67
2023/04/12 03:48:39;;;;;;;1.38;1.27;;;24.50;49.30;;;;;;5113506;28;20546;-67
2023/04/12 03:51:29;;;;;;;1.20;1.10;;;24.40;49.40;;;;;;5113741;28;20206;-67
2023/04/12 03:54:17;;;;;;;1.73;1.40;;;24.30;49.00;;;;;;5113760;28;20288;-67
2023/04/12 03:57:05;;;;;;;1.30;1.20;;;24.30;49.60;;;;;;5105922;28;20207;-66
2023/04/12 03:59:54;;;;;;;1.63;1.30;;;24.30;49.60;;;;;;5093283;28;20265;-66
2023/04/12 04:02:43;;;;;;;1.52;1.42;;;24.30;49.50;;;;;;5092874;28;20690;-67
2023/04/12 04:05:32;;;;;;;1.02;0.98;;;24.50;48.90;;;;;;5094366;28;20605;-66
2023/04/12 04:08:20;;;;;;;1.77;1.10;;;24.70;49.40;;;;;;5094569;28;20625;-67
2023/04/12 04:11:08;;;;;;;1.02;1.02;;;24.80;49.30;;;;;;5093676;28;20196;-67
2023/04/12 04:13:56;;;;;;;0.95;0.95;;;24.60;53.60;;;;;;5092789;28;20754;-67
2023/04/12 04:16:45;;;;;;;1.20;1.10;;;25.00;48.90;;;;;;5093704;28;20211;-67
2023/04/12 04:19:34;;;;;;;1.00;1.00;;;25.00;48.80;;;;;;5092476;28;20196;-67
2023/04/12 04:22:22;;;;;;;1.30;1.20;;;25.10;48.80;;;;;;5093440;28;20317;-67
2023/04/12 04:25:13;;;;;;;2.97;1.65;;;25.00;48.20;;;;;;5093722;28;20223;-67
2023/04/12 04:28:01;;;;;;;2.13;1.20;;;25.00;48.70;;;;;;5092800;28;20589;-67
2023/04/12 04:30:50;;;;;;;1.75;1.20;;;25.00;48.80;;;;;;5092902;28;20196;-67
2023/04/12 04:33:40;;;;;;;1.00;0.90;;;25.00;52.70;;;;;;5091990;28;20200;-67
2023/04/12 04:36:30;;;;;;;1.30;1.20;;;24.90;48.90;;;;;;5093150;28;20616;-67
2023/04/12 04:39:18;;;;;;;2.63;1.30;;;24.80;48.90;;;;;;5092842;28;20279;-66
2023/04/12 04:42:06;;;;;;;1.38;1.10;;;24.80;48.90;;;;;;5093508;28;20204;-67
2023/04/12 04:45:01;;;;;;;1.42;1.08;;;24.70;48.90;;;;;;5093414;28;20295;-67
2023/04/12 04:47:49;;;;;;;2.20;1.30;;;24.80;48.90;;;;;;5093130;28;20195;-67
2023/04/12 04:50:37;;;;;;;1.65;1.15;;;24.70;48.90;;;;;;5093752;28;20203;-67
2023/04/12 04:53:27;;;;;;;1.65;1.10;;;24.70;49.00;;;;;;5094122;28;20206;-67
2023/04/12 04:56:15;;;;;;;2.50;1.30;;;24.70;49.00;;;;;;5095646;28;20196;-67
2023/04/12 04:59:03;;;;;;;4.53;1.10;;;24.70;48.80;;;;;;5114382;28;20742;-67
2023/04/12 05:01:51;;;;;;;2.08;1.30;;;24.70;48.90;;;;;;5115650;28;20279;-67
2023/04/12 05:04:40;;;;;;;2.65;1.50;;;24.70;48.50;;;;;;5114969;28;20223;-67
2023/04/12 05:07:28;;;;;;;2.35;1.75;;;24.60;48.80;;;;;;5112999;28;20252;-66
2023/04/12 05:10:17;;;;;;;5.10;1.45;;;24.60;48.80;;;;;;5112029;28;20268;-67
2023/04/12 05:13:05;;;;;;;3.80;1.40;;;24.60;48.90;;;;;;5111326;28;20278;-67
2023/04/12 05:15:53;;;;;;;9.43;4.68;;;24.60;48.30;;;;;;5112188;28;20223;-67
2023/04/12 05:18:41;;;;;;;4.88;3.60;;;24.60;48.80;;;;;;5111440;28;20675;-67
2023/04/12 05:21:30;;;;;;;7.20;2.88;;;24.60;48.80;;;;;;5112472;28;20308;-66
2023/04/12 05:24:18;;;;;;;3.80;2.38;;;24.70;48.30;;;;;;5111618;28;20768;-67
2023/04/12 05:27:07;;;;;;;3.03;2.10;;;24.80;48.80;;;;;;5112277;28;20328;-67
2023/04/12 05:29:56;;;;;;;6.68;2.30;;;24.80;48.70;;;;;;5112378;28;20199;-67
2023/04/12 05:32:44;;;;;;;2.97;1.83;;;24.80;48.50;;;;;;5111573;28;20627;-67
2023/04/12 05:35:32;;;;;;;4.82;1.88;;;25.00;48.60;;;;;;5112232;28;20597;-67
2023/04/12 05:38:20;;;;;;;2.63;1.42;;;25.10;48.60;;;;;;5112695;28;20660;-67
2023/04/12 05:41:08;;;;;;;4.88;1.40;;;24.90;48.50;;;;;;5111969;28;20356;-69
2023/04/12 05:43:58;;;;;;;3.38;1.60;;;24.70;52.60;;;;;;5111428;28;20278;-67
2023/04/12 05:46:46;;;;;;;3.42;2.25;;;24.80;48.70;;;;;;5112232;28;20331;-67
2023/04/12 05:49:34;;;;;;;3.70;1.80;;;24.60;48.70;;;;;;5111208;28;20221;-67
2023/04/12 05:52:22;;;;;;;7.90;2.00;;;24.50;48.80;;;;;;5111771;28;20320;-67
2023/04/12 05:55:10;;;;;;;4.85;1.90;;;24.40;48.90;;;;;;5111706;28;20246;-67
2023/04/12 05:57:58;;;;;;;3.97;2.10;;;23.80;48.60;;;;;;5096529;28;20213;-68
2023/04/12 06:00:48;;;;;;;2.15;1.50;;;24.30;49.10;;;;;;5100351;28;20250;-68
2023/04/12 06:03:36;;;;;;;4.93;1.60;;;24.40;49.20;;;;;;5089813;28;20200;-67
2023/04/12 06:06:29;;;;;;;2.13;1.65;;;24.60;48.50;;;;;;5092489;28;20211;-67
2023/04/12 06:09:17;;;;;;;2.22;1.30;;;24.70;48.70;;;;;;5089400;28;20295;-67
2023/04/12 06:12:05;;;;;;;3.85;2.20;;;24.90;48.40;;;;;;5091650;28;20193;-67
2023/04/12 06:14:54;;;;;;;5.30;1.80;;;25.00;48.50;;;;;;5097781;28;20372;-66
2023/04/12 06:17:44;;;;;;;3.67;1.70;;;25.00;48.40;;;;;;5095544;28;20298;-66
2023/04/12 06:20:32;;;;;;;1.75;1.55;;;25.10;48.40;;;;;;5092656;28;20200;-66
2023/04/12 06:23:20;;;;;;;4.63;1.80;;;25.20;48.30;;;;;;5106587;28;20199;-65
2023/04/12 06:26:08;;;;;;;2.13;1.42;;;25.40;48.20;;;;;;5090204;28;20196;-66
2023/04/12 06:28:57;;;;;;;2.88;1.40;;;25.40;48.20;;;;;;5090774;28;20211;-66
2023/04/12 06:31:45;;;;;;;3.55;1.65;;;25.40;48.10;;;;;;5104178;28;20187;-65
2023/04/12 06:34:35;;;;;;;4.03;1.58;;;25.40;48.20;;;;;;5111404;28;20214;-66
2023/04/12 06:37:23;;;;;;;4.22;1.55;;;25.40;48.20;;;;;;5106327;28;20199;-66
2023/04/12 06:40:11;;;;;;;2.20;1.40;;;25.40;48.20;;;;;;5111427;28;20264;-66
2023/04/12 06:42:59;;;;;;;2.55;1.40;;;25.40;48.30;;;;;;5110864;28;20702;-66
2023/04/12 06:45:48;;;;;;;2.92;1.88;;;25.40;48.40;;;;;;5110545;28;20299;-67
2023/04/12 06:48:36;;;;;;;2.55;1.63;;;25.50;48.50;;;;;;5091987;28;20199;-66
2023/04/12 06:51:26;;;;;;;2.95;1.40;;;25.60;48.50;;;;;;5105379;28;20610;-67
2023/04/12 06:54:14;;;;;;;2.85;1.50;;;25.40;48.30;;;;;;5111054;28;20237;-67
2023/04/12 06:57:03;;;;;;;6.43;2.88;;;25.40;48.50;;;;;;5108342;28;20203;-66
2023/04/12 06:59:51;;;;;;;2.88;1.15;;;25.40;48.50;;;;;;5114609;28;20682;-66
2023/04/12 07:02:39;;;;;;;4.32;1.40;;;25.40;48.70;;;;;;5098354;28;20277;-66
2023/04/12 07:05:27;;;;;;;3.78;1.25;;;25.40;48.70;;;;;;5104831;28;20216;-65
2023/04/12 07:08:17;;;;;;;4.35;1.70;;;25.40;48.60;;;;;;5093624;28;20203;-66
2023/04/12 07:11:05;;;;;;;2.05;1.20;;;25.30;48.70;;;;;;5103942;28;21056;-67
2023/04/12 07:14:08;;;;;;;2.03;1.60;;;25.30;48.80;;;;;;5096950;28;20254;-66
2023/04/12 07:16:56;;;;;;;1.20;1.10;;;25.30;48.90;;;;;;5104531;28;20192;-67
2023/04/12 07:19:44;;;;;;;3.95;1.70;;;25.20;48.90;;;;;;5094053;28;20196;-66
2023/04/12 07:22:32;;;;;;;3.20;1.40;;;25.30;49.00;;;;;;5102674;28;20269;-65
2023/04/12 07:25:22;;;;;;;4.28;1.55;;;25.30;48.40;;;;;;5097334;28;20228;-68
2023/04/12 07:28:10;;;;;;;1.60;1.50;;;25.40;48.90;;;;;;5094683;28;20231;-67
2023/04/12 07:30:58;;;;;;;4.47;1.77;;;25.40;48.80;;;;;;5109384;28;20203;-66
2023/04/12 07:33:46;;;;;;;5.35;1.15;;;25.40;48.30;;;;;;5114249;28;20278;-66
2023/04/12 07:36:34;;;;;;;4.88;1.23;;;25.60;48.80;;;;;;5097913;28;20607;-66
2023/04/12 07:39:22;;;;;;;1.77;1.20;;;25.60;48.70;;;;;;5094678;28;20282;-66
2023/04/12 07:42:12;;;;;;;3.05;1.15;;;25.60;49.30;;;;;;5092540;28;20221;-67
2023/04/12 07:45:00;;;;;;;1.98;1.30;;;25.60;48.60;;;;;;5096923;28;20299;-68
2023/04/12 07:47:48;;;;;;;1.40;1.27;;;25.60;48.80;;;;;;5094593;28;20211;-67
2023/04/12 07:50:37;;;;;;;1.88;1.35;;;25.70;48.80;;;;;;5094484;28;20196;-65
2023/04/12 07:53:27;;;;;;;3.90;1.55;;;25.70;48.70;;;;;;5094220;28;20688;-67
2023/04/12 07:56:17;;;;;;;1.08;0.98;;;25.70;48.80;;;;;;5093206;28;20798;-66
2023/04/12 07:59:06;;;;;;;2.03;1.10;;;25.70;48.70;;;;;;5095745;28;20303;-66
2023/04/12 08:01:54;;;;;;;2.97;1.50;;;25.70;48.70;;;;;;5096619;28;20255;-66
2023/04/12 08:04:44;;;;;;;3.63;1.20;;;25.80;49.40;;;;;;5112158;28;20227;-66
2023/04/12 08:07:33;;;;;;;1.75;1.30;;;25.80;48.60;;;;;;5096343;28;20676;-66
2023/04/12 08:10:22;;;;;;;1.73;1.20;;;25.80;48.60;;;;;;5094646;28;20199;-65
2023/04/12 08:13:11;;;;;;;1.80;1.10;;;25.90;48.60;;;;;;5093874;28;20257;-68
2023/04/12 08:16:00;;;;;;;1.88;1.17;;;26.00;48.00;;;;;;5093757;28;20716;-66
2023/04/12 08:18:48;;;;;;;6.78;1.20;;;26.00;47.90;;;;;;5093240;22;20236;-59
2023/04/12 08:21:36;;;;;;;9.25;1.70;;;26.10;48.50;;;;;;5045874;28;20193;-59
2023/04/12 08:24:25;;;;;;;2.53;0.90;;;26.10;48.40;;;;;;5050403;28;20280;-59
2023/04/12 08:27:13;;;;;;;2.58;1.25;;;26.10;48.40;;;;;;5052519;28;20206;-59
2023/04/12 08:30:02;;;;;;;1.83;1.08;;;26.10;48.00;;;;;;5060107;28;20255;-59
2023/04/12 08:32:51;;;;;;;5.97;1.20;;;26.20;48.70;;;;;;5071868;28;20246;-62
2023/04/12 08:35:40;;;;;;;3.92;1.02;;;26.10;48.60;;;;;;5070962;28;20208;-61
2023/04/12 08:38:28;;;;;;;1.25;1.15;;;25.90;48.20;;;;;;5035696;28;20279;-61
2023/04/12 08:41:33;;;;;;;2.60;1.10;;;25.90;48.80;;;;;;5047654;28;20201;-61
2023/04/12 08:44:33;;;;;;;2.58;0.90;;;25.80;48.90;;;;;;5036853;28;20197;-61
2023/04/12 08:47:22;;;;;;;1.90;1.20;;;25.80;49.00;;;;;;5034762;28;20228;-61
2023/04/12 08:50:13;;;;;;;2.15;1.10;;;25.70;49.00;;;;;;5062452;28;20211;-61
2023/04/12 08:53:01;;;;;;;2.22;1.20;;;25.80;49.10;;;;;;5072222;28;20716;-61
2023/04/12 08:55:49;;;;;;;1.83;1.00;;;25.80;49.00;;;;;;5070569;28;20205;-60
2023/04/12 08:58:39;;;;;;;1.85;1.25;;;25.80;48.60;;;;;;5052021;28;20316;-59
2023/04/12 09:01:27;;;;;;;1.13;1.08;;;25.80;49.10;;;;;;5059536;28;20887;-64
2023/04/12 09:04:15;;;;;;;4.28;1.23;;;25.80;49.10;;;;;;5052345;28;20196;-61
2023/04/12 09:07:05;;;;;;;3.35;1.17;;;25.90;50.00;;;;;;5066157;28;20733;-64
2023/04/12 09:09:54;;;;;;;1.52;1.33;;;25.80;48.60;;;;;;5051015;28;20298;-64
2023/04/12 09:12:46;;;;;;;1.67;1.27;;;25.80;49.20;;;;;;5068858;28;20640;-61
2023/04/12 09:15:35;;;;;;;1.30;1.20;;;25.80;49.10;;;;;;5070905;28;20614;-62
2023/04/12 09:18:23;;;;;;;1.02;0.95;;;25.80;48.70;;;;;;5051294;28;20598;-62
2023/04/12 09:21:11;;;;;;;2.35;1.30;;;25.80;49.20;;;;;;5067332;28;20326;-62
2023/04/12 09:24:08;;;;;;;2.58;1.23;;;25.80;49.20;;;;;;5071137;28;20289;-64
2023/04/12 09:27:04;;;;;;;4.43;1.13;;;25.80;49.20;;;;;;5042066;28;20462;-62
2023/04/12 09:30:07;;;;;;;1.77;1.23;;;25.80;48.60;;;;;;5053984;28;20277;-62
2023/04/12 09:32:55;;;;;;;2.55;1.10;;;25.90;49.00;;;;;;5070447;28;20274;-65
2023/04/12 09:35:43;;;;;;;1.85;1.15;;;25.90;48.90;;;;;;5071453;28;20208;-64
2023/04/12 09:38:31;;;;;;;3.58;1.35;;;26.00;48.40;;;;;;5069411;28;20358;-63
2023/04/12 09:41:21;;;;;;;2.05;1.10;;;26.10;48.90;;;;;;5071519;28;20286;-63
2023/04/12 09:44:29;;;;;;;4.25;1.10;;;26.10;48.80;;;;;;5050463;28;20229;-63
2023/04/12 09:47:17;;;;;;;3.72;1.10;;;26.20;48.80;;;;;;5051111;28;20237;-64
2023/04/12 09:50:07;;;;;;;1.63;1.30;;;26.10;48.10;;;;;;5055380;28;20232;-64
2023/04/12 09:52:56;;;;;;;1.50;1.08;;;26.10;48.70;;;;;;5069968;28;20700;-64
2023/04/12 09:55:45;;;;;;;3.35;1.08;;;26.00;48.70;;;;;;5069233;28;20201;-63
2023/04/12 09:58:37;;;;;;;1.52;0.90;;;25.90;48.30;;;;;;5065539;28;20251;-64
2023/04/12 10:01:25;;;;;;;1.75;0.90;;;25.90;48.80;;;;;;5047135;28;20249;-64
2023/04/12 10:04:14;;;;;;;2.58;0.88;;;25.90;49.00;;;;;;5050576;28;20586;-63
2023/04/12 10:07:03;;;;;;;2.90;1.00;;;25.80;48.80;;;;;;5053774;28;20259;-63
2023/04/12 10:09:52;;;;;;;1.23;1.00;;;25.90;48.50;;;;;;5051584;28;20822;-62
2023/04/12 10:12:41;;;;;;;1.30;0.98;;;25.80;49.00;;;;;;5070750;28;20302;-61
2023/04/12 10:15:33;;;;;;;1.23;0.90;;;25.90;48.90;;;;;;5071865;28;20302;-61
2023/04/12 10:18:23;;;;;;;3.60;1.02;;;26.00;48.40;;;;;;5059054;28;20248;-64
2023/04/12 10:21:12;;;;;;;1.20;0.90;;;26.00;48.90;;;;;;5061528;28;20579;-66
2023/04/12 10:24:00;;;;;;;3.63;1.95;;;26.00;48.80;;;;;;5059420;28;20279;-63
2023/04/12 10:26:49;;;;;;;2.88;1.00;;;26.10;48.90;;;;;;5049404;28;20214;-63
2023/04/12 10:29:38;;;;;;;2.33;1.10;;;26.10;48.20;;;;;;5049565;28;20235;-64
2023/04/12 10:32:28;;;;;;;1.10;0.90;;;26.20;48.80;;;;;;5073138;28;20200;-64
2023/04/12 10:35:16;;;;;;;1.38;0.90;;;26.10;48.70;;;;;;5075891;28;20201;-64
2023/04/12 10:38:04;;;;;;;0.75;0.73;;;26.20;48.10;;;;;;5073991;28;20212;-64
2023/04/12 10:41:13;;;;;;;1.63;1.00;;;26.20;48.70;;;;;;5075551;28;20205;-63
2023/04/12 10:44:25;;;;;;;1.55;1.45;;;26.10;48.60;;;;;;5075577;28;20270;-64
2023/04/12 10:47:14;;;;;;;1.50;0.90;;;26.10;48.60;;;;;;5075655;28;20192;-64
2023/04/12 10:50:24;;;;;;;2.65;1.05;;;26.10;48.00;;;;;;5074488;28;20720;-63
2023/04/12 10:53:23;;;;;;;2.10;0.82;;;26.20;48.70;;;;;;5073700;28;20196;-64
2023/04/12 10:56:34;;;;;;;1.00;0.80;;;26.20;48.50;;;;;;5074568;28;20201;-64
2023/04/12 10:59:25;;;;;;;1.70;1.08;;;26.30;47.90;;;;;;5035825;28;20214;-64
2023/04/12 11:02:24;;;;;;;1.27;0.90;;;26.30;48.30;;;;;;5054407;28;20250;-63
2023/04/12 11:05:13;;;;;;;3.63;1.10;;;26.40;48.40;;;;;;5056910;28;20707;-64
2023/04/12 11:08:02;;;;;;;3.22;1.27;;;26.40;47.70;;;;;;5074284;28;20270;-65
2023/04/12 11:10:51;;;;;;;1.35;1.00;;;26.40;48.20;;;;;;5074522;28;20197;-64
2023/04/12 11:13:39;;;;;;;1.35;0.90;;;26.40;48.10;;;;;;5073301;28;20204;-64
2023/04/12 11:16:28;;;;;;;1.65;0.90;;;26.50;48.10;;;;;;5075258;28;20196;-64
2023/04/12 11:19:17;;;;;;;0.90;0.90;;;26.50;47.60;;;;;;5073436;28;20577;-64
2023/04/12 11:22:06;;;;;;;1.60;0.95;;;26.50;48.10;;;;;;5073219;28;20209;-64
2023/04/12 11:24:57;;;;;;;2.25;0.88;;;26.40;48.20;;;;;;5074105;28;20216;-65
2023/04/12 11:27:49;;;;;;;2.30;1.00;;;26.50;48.00;;;;;;5074911;28;20192;-64
2023/04/12 11:30:49;;;;;;;1.77;0.80;;;26.40;48.30;;;;;;5073098;28;20193;-65
2023/04/12 11:33:38;;;;;;;1.55;1.00;;;26.40;48.20;;;;;;5074636;28;20315;-64
2023/04/12 11:36:26;;;;;;;1.02;0.80;;;26.40;48.20;;;;;;5072947;28;20208;-64
2023/04/12 11:39:15;;;;;;;1.38;0.90;;;26.40;47.60;;;;;;5073075;28;20217;-64
2023/04/12 11:42:07;;;;;;;2.25;0.90;;;26.40;48.10;;;;;;5071366;28;20568;-64
2023/04/12 11:44:56;;;;;;;2.97;0.90;;;26.50;48.20;;;;;;5073303;28;20224;-63
2023/04/12 11:47:51;;;;;;;0.90;0.80;;;26.70;51.70;;;;;;5073631;28;20193;-65
2023/04/12 11:50:40;;;;;;;2.55;1.10;;;26.50;48.00;;;;;;5072697;28;20239;-64
2023/04/12 11:53:29;;;;;;;3.90;1.02;;;26.50;48.00;;;;;;5073696;28;20199;-63
2023/04/12 11:56:17;;;;;;;3.40;0.90;;;26.50;48.00;;;;;;5071858;28;20275;-65
2023/04/12 11:59:06;;;;;;;1.52;0.90;;;26.40;47.50;;;;;;5054273;28;20745;-65
2023/04/12 12:01:54;;;;;;;1.08;0.95;;;26.40;48.10;;;;;;5065546;28;20613;-64
2023/04/12 12:04:44;;;;;;;1.00;0.90;;;26.40;48.20;;;;;;5073827;28;20688;-64
2023/04/12 12:07:34;;;;;;;1.38;1.13;;;26.30;48.30;;;;;;5055232;28;20198;-64
2023/04/12 12:10:23;;;;;;;1.25;1.15;;;26.20;48.30;;;;;;5053304;28;20198;-64
2023/04/12 12:13:44;;;;;;;2.47;1.15;;;26.30;48.40;;;;;;5052377;28;20194;-64
2023/04/12 12:16:34;;;;;;;1.60;0.70;;;26.30;48.40;;;;;;5054218;28;20288;-64
2023/04/12 12:19:27;;;;;;;1.33;1.00;;;26.30;47.70;;;;;;5050511;28;20696;-64
2023/04/12 12:22:17;;;;;;;0.80;0.73;;;26.40;48.20;;;;;;5053718;28;20212;-63
2023/04/12 12:25:06;;;;;;;1.10;0.90;;;26.40;48.10;;;;;;5051103;28;20220;-64
2023/04/12 12:27:57;;;;;;;1.27;0.80;;;26.70;51.70;;;;;;5053071;28;20695;-64
2023/04/12 12:30:46;;;;;;;1.10;0.80;;;26.60;48.00;;;;;;5052834;28;20205;-64
2023/04/12 12:33:38;;;;;;;0.95;0.90;;;26.60;47.90;;;;;;5049320;28;20238;-64
2023/04/12 12:36:55;;;;;;;4.07;0.90;;;26.70;47.90;;;;;;5052329;28;20550;-63
2023/04/12 12:40:06;;;;;;;1.70;0.80;;;26.70;47.30;;;;;;5047287;28;20317;-64
2023/04/12 12:42:55;;;;;;;1.45;0.75;;;26.70;48.50;;;;;;5051823;28;20197;-64
2023/04/12 12:45:43;;;;;;;1.80;1.10;;;26.70;47.90;;;;;;5047120;28;20217;-63
2023/04/12 12:48:31;;;;;;;1.40;0.93;;;26.60;47.30;;;;;;5051771;28;20223;-63
2023/04/12 12:51:21;;;;;;;1.45;0.75;;;26.60;47.90;;;;;;5054808;28;20744;-63
2023/04/12 12:54:09;;;;;;;0.75;0.75;;;26.60;47.90;;;;;;5051349;28;20279;-62
2023/04/12 12:56:57;;;;;;;1.30;0.85;;;26.60;47.90;;;;;;5056558;28;20189;-61
2023/04/12 12:59:45;;;;;;;1.13;1.02;;;26.60;47.40;;;;;;5050864;28;20784;-60
2023/04/12 13:02:33;;;;;;;1.00;0.90;;;26.60;47.90;;;;;;5068519;28;20235;-63
2023/04/12 13:05:22;;;;;;;3.63;1.00;;;26.60;47.90;;;;;;5071833;28;20224;-62
2023/04/12 13:08:11;;;;;;;2.17;0.90;;;26.60;47.40;;;;;;5053020;28;20225;-62
2023/04/12 13:10:59;;;;;;;2.85;1.00;;;26.70;48.10;;;;;;5054924;28;20699;-63
2023/04/12 13:13:48;;;;;;;1.67;0.90;;;26.60;48.00;;;;;;5072918;28;20566;-64
2023/04/12 13:16:35;;;;;;;1.25;0.80;;;26.60;48.00;;;;;;5070962;28;20326;-63
2023/04/12 13:19:24;;;;;;;2.45;1.13;;;26.60;47.70;;;;;;5072489;28;20228;-63
2023/04/12 13:22:12;;;;;;;1.48;0.98;;;26.50;48.10;;;;;;5071194;28;20240;-64
2023/04/12 13:25:01;;;;;;;0.82;0.80;;;26.50;48.20;;;;;;5072178;28;20319;-64
2023/04/12 13:27:50;;;;;;;3.45;0.82;;;26.10;51.30;;;;;;5070653;28;20243;-64
2023/04/12 13:30:38;;;;;;;1.30;0.85;;;26.40;48.20;;;;;;5071758;28;20201;-64
2023/04/12 13:33:26;;;;;;;1.05;0.75;;;26.40;48.20;;;;;;5072435;28;20315;-64
2023/04/12 13:36:15;;;;;;;1.85;0.95;;;26.40;48.20;;;;;;5071393;28;20205;-63
2023/04/12 13:39:03;;;;;;;1.98;0.80;;;26.40;47.70;;;;;;5072785;28;20664;-63
2023/04/12 13:41:53;;;;;;;0.60;0.60;;;26.40;48.20;;;;;;5072118;28;20276;-63
2023/04/12 13:44:42;;;;;;;1.00;0.80;;;26.50;48.30;;;;;;5071934;28;20715;-63
2023/04/12 13:47:30;;;;;;;1.15;1.00;;;26.40;48.20;;;;;;5071955;28;20196;-64
2023/04/12 13:50:18;;;;;;;2.47;0.70;;;26.40;48.20;;;;;;5071678;28;20283;-62
2023/04/12 13:53:06;;;;;;;0.98;0.98;;;26.40;48.20;;;;;;5069472;28;20261;-63
2023/04/12 13:55:54;;;;;;;1.30;1.00;;;26.50;48.20;;;;;;5070518;28;20194;-63
2023/04/12 13:58:44;;;;;;;1.30;0.90;;;26.40;47.50;;;;;;5045974;28;20229;-63
2023/04/12 14:01:32;;;;;;;0.95;0.90;;;26.40;48.00;;;;;;5054345;28;20211;-63
2023/04/12 14:04:20;;;;;;;1.52;0.80;;;26.40;48.10;;;;;;5051516;28;20197;-63
2023/04/12 14:07:08;;;;;;;1.75;1.05;;;26.40;48.00;;;;;;5057664;28;20251;-64
2023/04/12 14:09:56;;;;;;;1.58;0.93;;;26.40;47.70;;;;;;5071591;28;20656;-63
2023/04/12 14:12:44;;;;;;;0.80;0.73;;;26.30;48.20;;;;;;5064903;28;20212;-64
2023/04/12 14:15:34;;;;;;;1.15;0.80;;;26.30;48.30;;;;;;5071045;28;20726;-64
2023/04/12 14:18:22;;;;;;;1.63;0.70;;;26.20;47.90;;;;;;5071941;28;20303;-64
2023/04/12 14:21:10;;;;;;;1.30;0.80;;;26.10;48.40;;;;;;5070733;28;20691;-63
2023/04/12 14:23:58;;;;;;;0.85;0.85;;;26.10;48.50;;;;;;5071588;28;20204;-59
2023/04/12 14:26:47;;;;;;;1.85;0.90;;;26.00;48.50;;;;;;5070110;28;20222;-63
2023/04/12 14:29:36;;;;;;;1.30;0.88;;;26.00;48.00;;;;;;5070691;28;20224;-63
2023/04/12 14:32:25;;;;;;;1.00;1.00;;;26.00;48.00;;;;;;5085351;22;20239;-67
2023/04/12 14:35:14;;;;;;;0.98;0.88;;;26.00;48.50;;;;;;5069641;28;20215;-70
2023/04/12 14:38:03;;;;;;;1.38;0.80;;;26.10;48.60;;;;;;5068717;28;20767;-70
2023/04/12 14:40:53;;;;;;;2.17;1.00;;;26.00;48.50;;;;;;5069911;28;20204;-69
2023/04/12 14:43:41;;;;;;;1.63;0.80;;;26.10;48.60;;;;;;5070255;28;20648;-69
2023/04/12 14:46:30;;;;;;;1.65;1.00;;;26.00;48.70;;;;;;5071428;28;20640;-69